Time;durP1;ratioP1;P1;durP2;ratioP2;P2;SDS_P1;SDS_P2;PMS_P1;PMS_P2;Temp;Humidity;BMP_temperature;BMP_pressure;BME280_temperature;BME280_humidity;BME280_pressure;Samples;Min_cycle;Max_cycle;Signal;HPM_P1;HPM_P2
2022/12/07 00:01:27;;;;;;;11.02;4.15;;;;;;;2.79;100.00;102099.31;7367449;19;21804;-83
2022/12/07 00:04:04;;;;;;;8.73;3.10;;;;;;;2.86;100.00;102102.41;7363368;19;20169;-83
2022/12/07 00:06:35;;;;;;;7.03;2.85;;;;;;;2.90;100.00;102095.72;7368836;19;20014;-82
2022/12/07 00:12:59;;;;;;;5.93;2.30;;;;;;;2.78;100.00;102081.97;7102234;19;2004180;-83
2022/12/07 00:34:34;;;;;;;3.10;2.22;;;;;;;2.21;100.00;102085.13;7232787;19;20489;-75
2022/12/07 01:00:12;;;;;;;4.25;2.08;;;;;;;1.68;100.00;102073.78;7179183;19;2004387;-75
2022/12/07 01:03:20;;;;;;;6.50;2.10;;;;;;;1.58;100.00;102080.91;7365857;19;20028;-83
2022/12/07 01:27:29;;;;;;;6.80;3.10;;;;;;;1.38;100.00;102077.72;7147765;19;2003238;-80
2022/12/07 01:40:25;;;;;;;4.13;2.67;;;;;;;1.12;100.00;102079.38;7103508;19;2003925;-79
2022/12/07 01:42:57;;;;;;;4.03;1.77;;;;;;;1.07;100.00;102079.84;7368196;19;20018;-79
2022/12/07 01:45:47;;;;;;;3.63;2.00;;;;;;;1.04;100.00;102084.84;7374210;19;20015;-80
2022/12/07 01:48:21;;;;;;;3.58;1.83;;;;;;;1.01;100.00;102087.19;7366574;19;20524;-79
2022/12/07 01:50:54;;;;;;;4.85;1.90;;;;;;;1.08;100.00;102099.72;7370433;19;20037;-80
2022/12/07 01:53:31;;;;;;;2.47;1.67;;;;;;;1.18;100.00;102091.84;7376055;19;20015;-81
2022/12/07 01:56:02;;;;;;;4.10;2.10;;;;;;;1.31;100.00;102087.66;7379378;19;20027;-81
2022/12/07 01:58:34;;;;;;;7.57;1.90;;;;;;;1.58;100.00;102082.59;7376640;19;20360;-81
2022/12/07 02:01:04;;;;;;;3.30;1.85;;;;;;;1.59;100.00;102074.06;7370254;19;20021;-81
2022/12/07 02:03:38;;;;;;;3.03;1.65;;;;;;;1.62;100.00;102069.09;7372798;19;20018;-83
2022/12/07 02:06:10;;;;;;;3.83;1.52;;;;;;;1.59;100.00;102069.78;7370433;19;20027;-82
2022/12/07 02:08:41;;;;;;;3.88;1.80;;;;;;;1.64;100.00;102065.81;7376703;19;20244;-82
2022/12/07 02:11:11;;;;;;;7.22;1.90;;;;;;;1.62;100.00;102056.16;7371180;19;20031;-83
2022/12/07 02:13:45;;;;;;;3.67;1.40;;;;;;;1.56;100.00;102056.63;7370972;19;20117;-82
2022/12/07 02:16:28;;;;;;;2.83;1.52;;;;;;;1.55;100.00;102051.38;7370924;19;20683;-82
2022/12/07 02:23:38;;;;;;;2.40;1.38;;;;;;;1.34;100.00;102047.28;7002229;19;2004027;-82
2022/12/07 02:55:53;;;;;;;2.53;1.42;;;;;;;1.26;100.00;102051.94;7113335;19;20049;-74
2022/12/07 03:06:00;;;;;;;3.47;1.48;;;;;;;1.56;100.00;102066.97;7032837;19;2004294;-80
2022/12/07 03:08:38;;;;;;;10.63;1.75;;;;;;;1.58;100.00;102069.66;7260044;19;2004459;-81
2022/12/07 03:11:12;;;;;;;4.28;1.45;;;;;;;1.63;100.00;102058.84;7360626;19;20030;-80
2022/12/07 03:13:54;;;;;;;2.30;1.25;;;;;;;1.69;100.00;102054.88;7364507;19;20282;-80
2022/12/07 03:16:30;;;;;;;7.28;1.90;;;;;;;1.74;100.00;102053.50;7370320;19;20414;-82
2022/12/07 03:19:03;;;;;;;3.53;1.70;;;;;;;1.78;100.00;102045.16;7366682;19;20022;-83
2022/12/07 03:21:41;;;;;;;3.88;1.50;;;;;;;1.85;100.00;102047.38;7368179;19;20014;-83
2022/12/07 03:24:16;;;;;;;2.25;1.23;;;;;;;1.89;100.00;102051.97;7366743;19;20011;-83
2022/12/07 03:26:51;;;;;;;4.10;1.73;;;;;;;1.89;100.00;102052.88;7371316;19;20054;-83
2022/12/07 03:29:25;;;;;;;6.68;1.58;;;;;;;1.95;100.00;102054.97;7369021;19;20035;-82
2022/12/07 03:32:01;;;;;;;1.75;1.33;;;;;;;2.01;100.00;102050.19;7367830;19;20019;-83
2022/12/07 03:34:37;;;;;;;3.53;1.50;;;;;;;2.12;100.00;102037.94;7370668;19;20015;-83
2022/12/07 03:37:15;;;;;;;4.75;1.38;;;;;;;2.10;100.00;102039.53;7368759;19;20011;-82
2022/12/07 03:39:50;;;;;;;4.55;1.58;;;;;;;2.46;100.00;102047.13;7368962;19;20011;-83
2022/12/07 03:42:20;;;;;;;6.72;1.80;;;;;;;2.43;100.00;102040.84;7367002;19;20013;-81
2022/12/07 03:44:51;;;;;;;8.88;1.80;;;;;;;2.48;100.00;102036.88;7364872;19;20087;-81
2022/12/07 03:50:54;;;;;;;1.50;1.08;;;;;;;2.37;100.00;102033.56;6960012;19;2004731;-82
2022/12/07 03:53:33;;;;;;;4.15;1.60;;;;;;;2.24;100.00;102029.28;7376138;19;20041;-84
2022/12/07 03:56:04;;;;;;;2.70;1.23;;;;;;;2.15;100.00;102026.09;7375320;19;20043;-83
2022/12/07 03:58:37;;;;;;;3.85;1.67;;;;;;;2.07;100.00;102029.91;7378878;19;20006;-83
2022/12/07 04:01:07;;;;;;;1.00;1.00;;;;;;;2.02;100.00;102027.81;7372167;19;20014;-83
2022/12/07 04:04:23;;;;;;;5.78;1.63;;;;;;;1.95;100.00;102031.69;7352856;19;20089;-75
2022/12/07 04:06:53;;;;;;;3.70;1.92;;;;;;;1.93;100.00;102022.91;7372681;19;20504;-84
2022/12/07 04:09:26;;;;;;;2.72;1.23;;;;;;;1.88;100.00;102026.88;7376375;19;20007;-83
2022/12/07 04:11:55;;;;;;;3.58;0.98;;;;;;;1.89;100.00;102028.69;7373846;19;20466;-83
2022/12/07 04:14:25;;;;;;;2.05;1.05;;;;;;;1.84;100.00;102030.06;7378572;19;20018;-83
2022/12/07 04:17:00;;;;;;;2.97;1.08;;;;;;;1.88;100.00;102026.88;7371354;19;20019;-83
2022/12/07 04:19:32;;;;;;;5.95;1.65;;;;;;;1.84;100.00;102025.78;7377528;19;20010;-83
2022/12/07 04:22:03;;;;;;;2.15;1.35;;;;;;;1.85;100.00;102026.69;7371509;19;20018;-84
2022/12/07 04:24:37;;;;;;;2.03;1.45;;;;;;;1.85;100.00;102024.09;7376719;19;20015;-83
2022/12/07 04:27:07;;;;;;;1.67;0.88;;;;;;;1.81;100.00;102025.59;7370810;19;20021;-84
2022/12/07 04:29:36;;;;;;;2.70;1.50;;;;;;;1.85;100.00;102029.28;7376254;19;20030;-84
2022/12/07 04:32:07;;;;;;;3.22;1.65;;;;;;;1.79;100.00;102022.00;7295936;19;20045;-84
2022/12/07 04:34:37;;;;;;;1.25;1.17;;;;;;;1.76;100.00;102028.66;7376312;19;20094;-84
2022/12/07 04:37:07;;;;;;;4.22;1.40;;;;;;;1.77;100.00;102025.28;7373086;19;20014;-84
2022/12/07 04:39:40;;;;;;;9.77;2.08;;;;;;;1.73;100.00;102025.84;7378979;19;20022;-82
2022/12/07 04:42:10;;;;;;;2.67;1.53;;;;;;;1.72;100.00;102018.88;7376439;19;20013;-84
2022/12/07 04:44:40;;;;;;;2.95;1.23;;;;;;;1.72;100.00;102019.78;7378935;19;20015;-84
2022/12/07 04:47:10;;;;;;;1.73;1.10;;;;;;;1.66;100.00;102009.03;7371092;19;20010;-83
2022/12/07 04:49:40;;;;;;;1.50;1.15;;;;;;;1.61;100.00;102013.00;7374370;19;20019;-82
2022/12/07 04:52:10;;;;;;;1.60;1.00;;;;;;;1.54;100.00;102005.63;7368054;19;20015;-81
2022/12/07 04:54:43;;;;;;;3.08;1.67;;;;;;;1.46;100.00;101999.91;7371529;19;20490;-82
2022/12/07 04:57:12;;;;;;;1.77;1.33;;;;;;;1.40;100.00;101999.50;7368586;19;20551;-81
2022/12/07 04:59:42;;;;;;;1.98;1.38;;;;;;;1.38;100.00;102001.09;7372943;19;20027;-81
2022/12/07 05:02:14;;;;;;;2.08;1.25;;;;;;;1.30;100.00;102012.59;7366344;19;20006;-81
2022/12/07 05:04:44;;;;;;;2.45;1.42;;;;;;;1.24;100.00;102002.72;7371557;19;20018;-81
2022/12/07 05:07:14;;;;;;;5.57;1.58;;;;;;;1.19;100.00;102006.69;7366668;19;20078;-81
2022/12/07 05:09:46;;;;;;;4.25;1.73;;;;;;;1.15;100.00;102012.41;7373056;19;20048;-81
2022/12/07 05:12:16;;;;;;;3.10;1.42;;;;;;;1.11;100.00;102004.34;7367998;19;20020;-81
2022/12/07 05:14:46;;;;;;;2.45;1.40;;;;;;;1.09;100.00;102000.75;7374492;19;20320;-80
2022/12/07 05:33:36;;;;;;;4.28;1.70;;;;;;;0.95;100.00;101997.25;7056575;19;2004241;-74
2022/12/07 05:37:07;;;;;;;6.30;2.22;;;;;;;0.93;100.00;102001.41;7096051;19;2003901;-74
2022/12/07 05:40:28;;;;;;;3.55;2.08;;;;;;;0.89;100.00;102005.47;6788510;19;2004119;-74
2022/12/07 05:43:41;;;;;;;4.88;2.30;;;;;;;0.83;100.00;101994.69;6900378;19;2004625;-75
2022/12/07 05:46:53;;;;;;;5.07;2.30;;;;;;;0.82;100.00;101998.06;7018226;19;20035;-75
2022/12/07 05:50:23;;;;;;;4.47;2.60;;;;;;;0.81;100.00;102004.03;7048938;19;2004083;-74
2022/12/07 06:21:46;;;;;;;7.93;2.60;;;;;;;0.53;100.00;102003.75;6654587;19;2004211;-80
2022/12/07 06:24:20;;;;;;;6.25;2.70;;;;;;;0.54;100.00;102008.13;7358400;19;20013;-82
2022/12/07 06:34:21;;;;;;;3.53;2.00;;;;;;;0.46;100.00;102000.59;7001062;19;2004001;-76
2022/12/07 06:37:27;;;;;;;9.52;2.50;;;;;;;0.43;100.00;102002.97;7054089;19;2004163;-75
2022/12/07 06:43:04;;;;;;;4.95;2.47;;;;;;;0.38;100.00;102006.91;7145619;19;2005573;-75
2022/12/07 06:45:40;;;;;;;4.68;2.25;;;;;;;0.38;100.00;102005.22;7276944;19;20546;-75
2022/12/07 06:48:12;;;;;;;2.80;2.25;;;;;;;0.37;100.00;102012.84;7270894;19;20023;-76
2022/12/07 06:50:42;;;;;;;7.93;2.50;;;;;;;0.39;100.00;102016.44;7319287;19;20007;-79
2022/12/07 06:53:15;;;;;;;5.15;2.92;;;;;;;0.40;100.00;102021.72;7329264;19;20014;-75
2022/12/07 06:59:02;;;;;;;5.13;2.83;;;;;;;0.44;100.00;102021.16;7175001;19;2004204;-74
2022/12/07 07:01:42;;;;;;;5.97;2.30;;;;;;;0.47;100.00;102016.19;7170666;19;2003840;-75
2022/12/07 07:04:38;;;;;;;7.22;2.75;;;;;;;0.48;100.00;102011.94;7174067;19;20490;-75
2022/12/07 07:07:17;;;;;;;6.80;2.97;;;;;;;0.50;100.00;102011.25;7221912;19;20015;-78
2022/12/07 07:10:09;;;;;;;8.70;3.35;;;;;;;0.51;100.00;102013.06;7194641;19;20093;-74
2022/12/07 07:13:03;;;;;;;7.10;2.55;;;;;;;0.54;100.00;102012.38;6982657;19;2004025;-76
2022/12/07 07:15:53;;;;;;;6.22;2.60;;;;;;;0.51;100.00;102013.06;7298742;19;20097;-76
2022/12/07 07:18:36;;;;;;;7.75;2.72;;;;;;;0.49;100.00;102013.72;7265477;19;20010;-76
2022/12/07 07:21:07;;;;;;;7.38;2.80;;;;;;;0.51;100.00;102022.47;7237238;19;20015;-74
2022/12/07 07:23:49;;;;;;;10.23;4.35;;;;;;;0.51;100.00;102017.31;7209826;19;20908;-75
2022/12/07 07:26:31;;;;;;;9.10;3.97;;;;;;;0.49;100.00;102018.91;7244551;19;20057;-75
2022/12/07 07:29:13;;;;;;;9.32;4.20;;;;;;;0.48;100.00;102011.94;7216788;19;20003;-75
2022/12/07 07:31:48;;;;;;;14.02;4.82;;;;;;;0.48;100.00;102012.84;7332514;19;20044;-75
2022/12/07 07:34:20;;;;;;;9.07;3.92;;;;;;;0.46;100.00;102013.50;7279902;19;20871;-74
2022/12/07 07:37:00;;;;;;;7.30;3.53;;;;;;;0.43;100.00;102011.59;7257430;19;20357;-76
2022/12/07 07:39:32;;;;;;;7.00;3.30;;;;;;;0.44;100.00;102015.97;7353409;19;20023;-78
2022/12/07 07:42:03;;;;;;;12.25;4.35;;;;;;;0.47;100.00;102017.88;7275775;19;20090;-75
2022/12/07 07:44:39;;;;;;;8.10;3.70;;;;;;;0.45;100.00;102022.03;7338917;19;20097;-78
2022/12/07 07:47:09;;;;;;;9.70;4.77;;;;;;;0.48;100.00;102017.09;7360370;19;20034;-78
2022/12/07 07:49:40;;;;;;;6.78;3.63;;;;;;;0.44;100.00;102013.41;7313959;19;20039;-75
2022/12/07 07:52:16;;;;;;;9.00;3.45;;;;;;;0.45;100.00;102011.72;7357438;19;20010;-75
2022/12/07 07:54:46;;;;;;;11.68;3.10;;;;;;;0.56;100.00;102021.13;7363062;19;20227;-75
2022/12/07 07:57:18;;;;;;;6.18;2.55;;;;;;;0.71;100.00;102017.06;7363864;19;20011;-75
2022/12/07 07:59:51;;;;;;;7.45;2.60;;;;;;;0.82;100.00;102010.97;7364018;19;20122;-75
2022/12/07 08:02:22;;;;;;;6.20;2.58;;;;;;;0.84;100.00;102016.25;7356953;19;20015;-76
2022/12/07 08:04:52;;;;;;;6.68;3.15;;;;;;;0.84;100.00;102017.16;7357791;19;20011;-75
2022/12/07 08:07:22;;;;;;;8.77;2.70;;;;;;;0.87;100.00;102013.91;7355308;19;20010;-75
2022/12/07 08:09:54;;;;;;;12.55;4.47;;;;;;;0.93;100.00;102014.31;7269382;19;20014;-76
2022/12/07 08:13:10;;;;;;;10.25;3.90;;;;;;;0.96;100.00;102012.84;7364404;19;20131;-75
2022/12/07 08:15:33;;;;;;;8.20;3.40;;;;;;;1.03;100.00;102021.03;7253435;19;2004341;-77
2022/12/07 08:18:03;;;;;;;8.30;3.10;;;;;;;1.05;100.00;102009.97;7362845;19;20018;-76
2022/12/07 08:20:34;;;;;;;6.65;2.88;;;;;;;1.10;100.00;102018.94;7356870;19;20030;-76
2022/12/07 08:23:05;;;;;;;9.57;3.20;;;;;;;1.08;100.00;102022.22;7359759;19;20094;-76
2022/12/07 08:25:35;;;;;;;9.95;3.03;;;;;;;1.07;100.00;102023.00;7357972;19;20511;-78
2022/12/07 08:28:08;;;;;;;7.70;3.00;;;;;;;1.05;100.00;102020.31;7362405;19;20022;-78
2022/12/07 08:30:40;;;;;;;9.65;3.70;;;;;;;1.10;100.00;102018.94;7352789;19;20090;-78
2022/12/07 08:33:11;;;;;;;7.53;3.72;;;;;;;1.08;100.00;102023.13;7360826;19;20025;-78
2022/12/07 08:35:41;;;;;;;5.57;3.28;;;;;;;1.09;100.00;102026.59;7355197;19;20014;-79
2022/12/07 08:38:11;;;;;;;9.50;3.47;;;;;;;1.07;100.00;102026.50;7367342;19;20014;-78
2022/12/07 08:40:41;;;;;;;8.27;3.00;;;;;;;1.13;100.00;102031.19;7364705;19;20520;-79
2022/12/07 08:43:11;;;;;;;6.72;2.72;;;;;;;1.14;100.00;102030.41;7367888;19;20011;-78
2022/12/07 08:45:43;;;;;;;8.43;2.80;;;;;;;1.19;100.00;102026.44;7363453;19;20025;-77
2022/12/07 08:48:17;;;;;;;6.68;3.22;;;;;;;1.20;100.00;102025.66;7367402;19;20026;-78
2022/12/07 08:50:47;;;;;;;7.05;3.45;;;;;;;1.24;100.00;102032.84;7367115;19;20026;-78
2022/12/07 08:53:18;;;;;;;9.15;3.15;;;;;;;1.29;100.00;102031.47;7360431;19;20019;-78
2022/12/07 08:55:54;;;;;;;5.68;3.38;;;;;;;1.30;100.00;102023.81;7367797;19;20044;-81
2022/12/07 08:58:24;;;;;;;7.32;3.53;;;;;;;1.36;100.00;102023.34;7363247;19;20018;-77
2022/12/07 09:00:56;;;;;;;8.95;3.50;;;;;;;1.45;100.00;102016.22;7367893;19;20021;-77
2022/12/07 09:03:26;;;;;;;5.82;3.28;;;;;;;1.47;100.00;102024.97;7361448;19;20110;-78
2022/12/07 09:05:57;;;;;;;6.97;4.10;;;;;;;1.52;100.00;102026.19;7368445;19;20014;-78
2022/12/07 09:08:32;;;;;;;7.80;3.55;;;;;;;1.60;100.00;102014.69;7364142;19;20010;-80
2022/12/07 09:11:02;;;;;;;9.02;3.65;;;;;;;1.80;100.00;102022.88;7364750;19;20094;-78
2022/12/07 09:13:32;;;;;;;9.05;3.90;;;;;;;1.99;100.00;102028.50;7355029;19;20017;-81
2022/12/07 09:16:04;;;;;;;5.35;3.08;;;;;;;2.10;100.00;102039.53;7362233;19;20542;-80
2022/12/07 09:18:34;;;;;;;10.13;4.20;;;;;;;2.15;100.00;102032.97;7365428;19;20134;-80
2022/12/07 09:21:04;;;;;;;12.20;4.85;;;;;;;2.21;100.00;102023.91;7368535;19;20018;-79
2022/12/07 09:29:56;;;;;;;10.57;4.07;;;;;;;2.27;100.00;102016.56;7337182;19;20024;-81
2022/12/07 09:45:57;;;;;;;10.80;4.88;;;;;;;2.18;100.00;102004.69;7364237;19;20047;-83
2022/12/07 09:48:32;;;;;;;13.75;6.25;;;;;;;2.23;100.00;102011.97;7357817;19;20014;-83
2022/12/07 09:51:03;;;;;;;10.95;6.07;;;;;;;2.30;100.00;102008.97;7367226;19;20042;-83
2022/12/07 10:00:43;;;;;;;9.82;5.15;;;;;;;-144.15;100.00;57640.13;7341023;19;20014;-75
2022/12/07 10:04:09;;;;;;;12.50;4.90;;;;;;;;;;7192114;19;2988319;-73
2022/12/07 10:06:45;;;;;;;9.43;5.05;;;;;;;;;;7254189;19;20010;-73
2022/12/07 10:09:24;;;;;;;15.65;5.88;;;;;;;;;;7322503;19;20025;-73
2022/12/07 10:12:12;;;;;;;18.92;5.78;;;;;;;;;;7185976;19;20042;-73
2022/12/07 10:14:58;;;;;;;9.40;5.25;;;;;;;;;;7161667;19;2003241;-73
2022/12/07 10:20:28;;;;;;;19.50;8.20;;;;;;;;;;7255291;19;20321;-73
2022/12/07 10:22:59;;;;;;;11.05;6.55;;;;;;;;;;7308508;19;20474;-74
2022/12/07 10:25:31;;;;;;;13.70;6.05;;;;;;;;;;7393200;19;20007;-73
2022/12/07 10:28:02;;;;;;;14.48;5.68;;;;;;;;;;7399760;19;20101;-73
2022/12/07 10:30:33;;;;;;;12.68;6.20;;;;;;;;;;7396757;19;20015;-73
2022/12/07 10:33:02;;;;;;;10.10;5.57;;;;;;;;;;7398679;19;20014;-75
2022/12/07 10:35:34;;;;;;;11.05;4.93;;;;;;;;;;7397716;19;20026;-75
2022/12/07 10:38:03;;;;;;;9.52;4.55;;;;;;;;;;7400744;19;20067;-75
2022/12/07 10:40:35;;;;;;;14.82;4.55;;;;;;;;;;7397656;19;20013;-75
2022/12/07 10:43:09;;;;;;;7.47;4.18;;;;;;;;;;7401735;19;20045;-75
2022/12/07 10:45:45;;;;;;;9.52;3.83;;;;;;;;;;7394715;19;20051;-75
2022/12/07 10:48:36;;;;;;;14.57;3.80;;;;;;;;;;7393763;19;20057;-75
2022/12/07 10:51:13;;;;;;;8.77;3.33;;;;;;;;;;7398772;19;20242;-76
2022/12/07 10:53:55;;;;;;;6.10;3.05;;;;;;;;;;7392598;19;20517;-76
2022/12/07 10:56:33;;;;;;;7.57;3.38;;;;;;;;;;7395135;19;20510;-75
2022/12/07 10:59:09;;;;;;;9.98;3.55;;;;;;;;;;7399366;19;20144;-75
2022/12/07 11:01:43;;;;;;;6.55;3.30;;;;;;;;;;7396310;19;20006;-75
2022/12/07 11:04:20;;;;;;;7.72;2.50;;;;;;;;;;7398933;19;20027;-75
2022/12/07 11:06:56;;;;;;;6.25;2.83;;;;;;;;;;7397791;19;20566;-75
2022/12/07 11:09:40;;;;;;;6.10;2.33;;;;;;;;;;7396958;19;20014;-74
2022/12/07 11:12:35;;;;;;;5.80;2.67;;;;;;;;;;7393365;19;20336;-74
2022/12/07 11:15:06;;;;;;;10.07;2.65;;;;;;;;;;7394709;19;20021;-75
2022/12/07 11:17:39;;;;;;;5.72;2.03;;;;;;;;;;7394741;19;20096;-75
2022/12/07 11:20:16;;;;;;;4.28;2.20;;;;;;;;;;7394666;19;20014;-74
2022/12/07 11:22:51;;;;;;;7.50;2.10;;;;;;;;;;7388773;19;20030;-74
2022/12/07 11:25:26;;;;;;;4.82;1.85;;;;;;;;;;7390310;19;20023;-74
2022/12/07 11:28:05;;;;;;;5.50;1.63;;;;;;;;;;7389991;19;20007;-76
2022/12/07 11:30:36;;;;;;;5.80;1.83;;;;;;;;;;7374964;19;20503;-75
2022/12/07 11:33:12;;;;;;;6.07;1.58;;;;;;;;;;7366768;19;20011;-76
2022/12/07 11:35:48;;;;;;;5.13;1.65;;;;;;;;;;7363925;19;20109;-75
2022/12/07 11:38:22;;;;;;;1.63;1.27;;;;;;;;;;7366999;19;20018;-75
2022/12/07 11:41:12;;;;;;;3.90;1.40;;;;;;;;;;7371338;19;20019;-76
2022/12/07 11:43:55;;;;;;;3.65;0.98;;;;;;;;;;7360538;19;20007;-76
2022/12/07 13:21:59;;;;;;;8.38;2.67;;;;;;;;;;7152540;19;20317;-53
2022/12/07 13:26:08;;;;;;;7.40;2.28;;;;;;;;;;7247026;19;20321;-62
2022/12/07 13:29:23;;;;;;;3.00;1.48;;;;;;;;;;6423333;19;20302;-65
2022/12/07 14:27:33;;;;;;;5.63;1.55;;;;;;;;;;7357472;19;20095;-53
2022/12/07 14:30:37;;;;;;;2.97;1.30;;;;;;;;;;7391911;19;20366;-48
2022/12/07 14:33:08;;;;;;;3.78;1.55;;;;;;;;;;7404056;19;20051;-46
2022/12/07 14:35:40;;;;;;;3.65;1.45;;;;;;;;;;7402545;19;20015;-49
2022/12/07 14:38:10;;;;;;;3.53;1.40;;;;;;;;;;7404351;19;20010;-45
2022/12/07 14:40:40;;;;;;;2.75;1.17;;;;;;;;;;7401905;19;20074;-48
2022/12/07 14:43:14;;;;;;;2.40;1.23;;;;;;;;;;7404044;19;20022;-47
2022/12/07 14:45:45;;;;;;;;;;;;;;;;;;7403116;19;20419;-45
2022/12/07 14:48:18;;;;;;;2.03;1.05;;;;;;;;;;7405541;19;19914;-45
2022/12/07 14:51:07;;;;;;;3.83;1.23;;;;;;;;;;7295590;19;2004226;-45
2022/12/07 14:53:57;;;;;;;5.15;1.48;;;;;;;;;;7298468;19;2004209;-46
2022/12/07 14:56:27;;;;;;;2.28;1.27;;;;;;;;;;7398131;19;20018;-45
2022/12/07 14:58:57;;;;;;;2.78;1.20;;;;;;;;;;7402817;19;20018;-46
2022/12/07 15:01:26;;;;;;;3.70;1.50;;;;;;;;;;7397461;19;20011;-47
2022/12/07 15:03:58;;;;;;;5.20;1.70;;;;;;;;;;7401792;19;20017;-46
2022/12/07 15:06:28;;;;;;;4.47;1.60;;;;;;;;;;7399490;19;20085;-46
2022/12/07 15:08:58;;;;;;;2.67;1.60;;;;;;;;;;7401525;19;20021;-47
2022/12/07 15:11:27;;;;;;;3.60;1.50;;;;;;;;;;7395139;19;20091;-46
2022/12/07 15:14:12;;;;;;;6.30;2.00;;;;;;;;;;7400010;19;20014;-46
2022/12/07 15:16:43;;;;;;;2.85;1.60;;;;;;;;;;7398332;19;20047;-46
2022/12/07 15:19:35;;;;;;;2.97;1.90;;;;;;;;;;7396893;19;20018;-48
2022/12/07 15:22:04;;;;;;;3.67;1.67;;;;;;;;;;7399410;19;20463;-46
2022/12/07 15:24:34;;;;;;;3.88;1.60;;;;;;;;;;7395066;19;20027;-47
2022/12/07 15:27:03;;;;;;;5.45;1.92;;;;;;;;;;7403118;19;20048;-47
2022/12/07 15:29:33;;;;;;;2.20;1.48;;;;;;;;;;7393794;19;20011;-47
2022/12/07 15:32:02;;;;;;;5.25;1.75;;;;;;;;;;7392327;19;20014;-46
2022/12/07 15:34:34;;;;;;;4.65;1.98;;;;;;;;;;7391074;19;20010;-47
2022/12/07 15:37:08;;;;;;;5.05;1.80;;;;;;;;;;7404800;19;20014;-48
2022/12/07 15:39:38;;;;;;;3.92;1.95;;;;;;;;;;7385114;19;20062;-50
2022/12/07 15:42:08;;;;;;;5.15;1.73;;;;;;;;;;7373597;19;20089;-47
2022/12/07 15:47:20;;;;;;;5.00;1.67;;;;;;;;;;7370197;19;20002;-48
2022/12/07 15:49:52;;;;;;;3.63;1.60;;;;;;;;;;7375548;19;20027;-50
2022/12/07 15:52:22;;;;;;;3.13;1.40;;;;;;;;;;7364090;19;20014;-48
2022/12/07 15:54:54;;;;;;;2.15;1.30;;;;;;;;;;7375251;19;20070;-50
2022/12/07 15:57:24;;;;;;;3.92;1.70;;;;;;;;;;7369785;19;20011;-51
2022/12/07 15:59:54;;;;;;;5.30;1.70;;;;;;;;;;7371602;19;20015;-47
2022/12/07 16:02:23;;;;;;;6.05;2.05;;;;;;;;;;7366598;19;20042;-49
2022/12/07 16:04:55;;;;;;;3.25;1.48;;;;;;;;;;7371727;19;20015;-50
2022/12/07 16:07:25;;;;;;;4.43;1.83;;;;;;;;;;7368267;19;20121;-49
2022/12/07 16:09:54;;;;;;;5.88;1.90;;;;;;;;;;7372557;19;20072;-49
2022/12/07 16:12:24;;;;;;;6.07;2.20;;;;;;;;;;7364552;19;20011;-47
2022/12/07 16:14:54;;;;;;;4.82;1.92;;;;;;;;;;7370026;19;20036;-49
